^^
Station Historical Data
Daily Summary for November 28, 2017 Units:  Metric    English   Both
« Previous Day
Next Day »
Daily Weekly Monthly Yearly Custom
  High: Low: Average:
Temperature: 36.4 °C 22.8 °C 31.3 °C
Dew Point: 9 °C -3.1 °C 3.6 °C
Humidity: 41% 8% 20%
Wind Speed: 38.5km/h 1.4km/h 19.3km/h
Wind Gust: 38.6km/h - -
Wind- - SSW
Pressure: 1008.4 hPa 1003.6 hPa -
Precipitation: 0 mm    
Historical Graphs
 
 
Tabular Data for November 28, 2017
Time Temperature Dew Point Pressure Wind Wind Speed Wind Gust Humidity Rainfall Rate (Hourly) solar Conditions
11:53 32.3 °C 2.4 °C 1006.7 hPa SW 9.7 km/h 20.9 km/h 15% 0 mm 965.0 W/m2
13:30 34.9 °C 0.1 °C 1005.6 hPa SW 7.9 km/h 19.3 km/h 11% 0 mm 960.0 W/m2
14:15 35.3 °C -0.9 °C 1005.3 hPa SW 16.3 km/h 17.7 km/h 10% 0 mm 904.0 W/m2
14:39 35.7 °C -2.1 °C 1005 hPa SSW 14.3 km/h 20.9 km/h 9% 0 mm 853.0 W/m2
14:54 35.7 °C -2.1 °C 1004.6 hPa SSW 13 km/h 17.7 km/h 9% 0 mm 819.0 W/m2
15:10 36.1 °C -1.8 °C 1004.6 hPa SW 13 km/h 22.5 km/h 9% 0 mm 782.0 W/m2
15:25 36.4 °C -3.1 °C 1004.3 hPa SW 13 km/h 16.1 km/h 8% 0 mm 740.0 W/m2
15:55 36.3 °C -1.6 °C 1004.3 hPa SSW 1.4 km/h 16.1 km/h 9% 0 mm 652.0 W/m2
16:00 36.3 °C -1.6 °C 1004.3 hPa SSW 1.4 km/h 16.1 km/h 9% 0 mm 652.0 W/m2
16:10 36.2 °C -0.3 °C 1003.9 hPa South 14.3 km/h 19.3 km/h 10% 0 mm 606.0 W/m2
16:20 36.2 °C -0.3 °C 1003.9 hPa South 22.7 km/h 24.1 km/h 10% 0 mm 573.0 W/m2
16:30 35.9 °C -0.5 °C 1003.9 hPa South 6.4 km/h 16.1 km/h 10% 0 mm 545.0 W/m2
16:43 36.1 °C -0.3 °C 1003.6 hPa South 13 km/h 20.9 km/h 10% 0 mm 510.0 W/m2
16:50 36.1 °C -0.3 °C 1003.6 hPa SSW 6.4 km/h 12.9 km/h 10% 0 mm 473.0 W/m2
16:55 36.2 °C -0.3 °C 1003.6 hPa South 16.3 km/h 22.5 km/h 10% 0 mm 459.0 W/m2
17:20 35.6 °C 1.8 °C 1003.6 hPa SSW 19.5 km/h 30.6 km/h 12% 0 mm 380.0 W/m2
17:30 35.2 °C 3.7 °C 1003.9 hPa SSW 24.1 km/h 29 km/h 14% 0 mm 355.0 W/m2
17:35 34.3 °C 4 °C 1003.9 hPa SSW 25.9 km/h 30.6 km/h 15% 0 mm 316.0 W/m2
18:08 32.7 °C 4.5 °C 1004.3 hPa SSW 22.7 km/h 30.6 km/h 17% 0 mm 211.0 W/m2
18:14 32.4 °C 5 °C 1004.3 hPa SW 38.5 km/h 38.6 km/h 18% 0 mm 190.0 W/m2
18:23 31.9 °C 4.6 °C 1004.6 hPa SSW 19.5 km/h 32.2 km/h 18% 0 mm 149.0 W/m2
18:31 31.6 °C 5.2 °C 1004.6 hPa SSW 24.1 km/h 29 km/h 19% 0 mm 113.0 W/m2
18:43 31.1 °C 5.5 °C 1005 hPa SW 27.4 km/h 33.8 km/h 20% 0 mm 77.0 W/m2
18:50 30.6 °C 5.8 °C 1005 hPa SSW 27.4 km/h 33.8 km/h 21% 0 mm 47.0 W/m2
19:00 30 °C 6 °C 1005.3 hPa SW 20.9 km/h 29 km/h 22% 0 mm 21.0 W/m2
19:01 30.3 °C 5.5 °C 1005 hPa SSW 22.7 km/h 32.2 km/h 21% 0 mm 28.0 W/m2
19:15 28.8 °C 6.8 °C 1005.6 hPa SSW 28.8 km/h 33.8 km/h 25% 0 mm 12.0 W/m2
19:22 28.8 °C 6.8 °C 1005.6 hPa SSW 28.8 km/h 33.8 km/h 25% 0 mm 12.0 W/m2
19:31 27.7 °C 7.5 °C 1006 hPa SSW 22.7 km/h 33.8 km/h 28% 0 mm 0.0 W/m2
19:46 26.8 °C 7.3 °C 1006.3 hPa SSW 25.9 km/h 33.8 km/h 29% 0 mm 0.0 W/m2
20:11 26 °C 7.6 °C 1006.7 hPa SSW 22.7 km/h 32.2 km/h 31% 0 mm 0.0 W/m2
20:16 26 °C 7.6 °C 1006.7 hPa SSW 22.7 km/h 32.2 km/h 31% 0 mm 0.0 W/m2
20:26 25.4 °C 7.5 °C 1007 hPa SW 24.1 km/h 32.2 km/h 32% 0 mm 0.0 W/m2
20:45 24.9 °C 8 °C 1007.3 hPa SSW 24.1 km/h 29 km/h 34% 0 mm 0.0 W/m2
20:57 24.3 °C 8.3 °C 1007.3 hPa SSW 28.8 km/h 32.2 km/h 36% 0 mm 0.0 W/m2
21:11 23.9 °C 8.3 °C 1007.7 hPa SSW 19.5 km/h 29 km/h 37% 0 mm 0.0 W/m2
21:26 23.3 °C 8.6 °C 1008 hPa SSW 25.9 km/h 29 km/h 39% 0 mm 0.0 W/m2
21:40 23 °C 9 °C 1008.4 hPa SSW 24.1 km/h 25.7 km/h 41% 0 mm 0.0 W/m2
21:47 22.8 °C 8.9 °C 1008.4 hPa SSW 14.3 km/h 24.1 km/h 41% 0 mm 0.0 W/m2
Canyon Roadhouse, Fishriver Canyon, Namibia
Compliments of Weather Underground - 1.75 mb